sensor_id;sensor_type;location;lat;lon;timestamp;temperature;humidity
17986;DHT22;9118;48.122;11.546;2023-11-21T00:03:34;8.30;99.90
17986;DHT22;9118;48.122;11.546;2023-11-21T00:06:06;8.20;99.90
17986;DHT22;9118;48.122;11.546;2023-11-21T00:08:37;8.20;99.90
17986;DHT22;9118;48.122;11.546;2023-11-21T00:11:04;8.20;99.90
17986;DHT22;9118;48.122;11.546;2023-11-21T00:13:31;8.20;99.90
17986;DHT22;9118;48.122;11.546;2023-11-21T00:16:01;8.10;99.90
17986;DHT22;9118;48.122;11.546;2023-11-21T00:18:31;7.90;99.90
17986;DHT22;9118;48.122;11.546;2023-11-21T00:20:57;7.90;99.90
17986;DHT22;9118;48.122;11.546;2023-11-21T00:23:26;7.80;99.90
17986;DHT22;9118;48.122;11.546;2023-11-21T00:25:52;7.80;99.90
17986;DHT22;9118;48.122;11.546;2023-11-21T00:33:14;7.80;99.90
17986;DHT22;9118;48.122;11.546;2023-11-21T00:35:41;7.90;99.90
17986;DHT22;9118;48.122;11.546;2023-11-21T00:38:08;7.90;99.90
17986;DHT22;9118;48.122;11.546;2023-11-21T00:40:36;8.00;99.90
17986;DHT22;9118;48.122;11.546;2023-11-21T00:43:03;8.00;99.90
17986;DHT22;9118;48.122;11.546;2023-11-21T00:45:30;8.10;99.90
17986;DHT22;9118;48.122;11.546;2023-11-21T00:47:57;8.20;99.90
17986;DHT22;9118;48.122;11.546;2023-11-21T01:47:06;8.40;99.90
17986;DHT22;9118;48.122;11.546;2023-11-21T01:54:39;8.50;99.90
17986;DHT22;9118;48.122;11.546;2023-11-21T02:11:51;8.80;99.90
17986;DHT22;9118;48.122;11.546;2023-11-21T02:14:19;8.70;99.90
17986;DHT22;9118;48.122;11.546;2023-11-21T02:16:48;8.70;99.90
17986;DHT22;9118;48.122;11.546;2023-11-21T02:21:42;8.80;99.90
17986;DHT22;9118;48.122;11.546;2023-11-21T02:24:12;8.80;99.90
17986;DHT22;9118;48.122;11.546;2023-11-21T02:26:38;8.70;99.90
17986;DHT22;9118;48.122;11.546;2023-11-21T02:29:06;8.50;99.90
17986;DHT22;9118;48.122;11.546;2023-11-21T02:31:36;8.30;99.90
17986;DHT22;9118;48.122;11.546;2023-11-21T02:34:11;8.30;99.90
17986;DHT22;9118;48.122;11.546;2023-11-21T02:36:38;8.00;99.90
17986;DHT22;9118;48.122;11.546;2023-11-21T02:39:05;7.80;99.90
17986;DHT22;9118;48.122;11.546;2023-11-21T02:41:34;7.80;99.90
17986;DHT22;9118;48.122;11.546;2023-11-21T02:44:01;7.80;99.90
17986;DHT22;9118;48.122;11.546;2023-11-21T02:46:28;7.80;99.90
17986;DHT22;9118;48.122;11.546;2023-11-21T02:48:55;7.70;99.90
17986;DHT22;9118;48.122;11.546;2023-11-21T02:51:23;7.80;99.90
17986;DHT22;9118;48.122;11.546;2023-11-21T02:53:49;7.90;99.90
17986;DHT22;9118;48.122;11.546;2023-11-21T02:56:17;7.60;99.90
17986;DHT22;9118;48.122;11.546;2023-11-21T02:58:46;7.90;99.90
17986;DHT22;9118;48.122;11.546;2023-11-21T03:01:13;8.10;99.90
17986;DHT22;9118;48.122;11.546;2023-11-21T03:03:40;8.20;99.90
17986;DHT22;9118;48.122;11.546;2023-11-21T03:06:07;8.10;99.90
17986;DHT22;9118;48.122;11.546;2023-11-21T03:08:34;8.30;99.90
17986;DHT22;9118;48.122;11.546;2023-11-21T03:11:00;8.30;99.90
17986;DHT22;9118;48.122;11.546;2023-11-21T03:13:28;8.40;99.90
17986;DHT22;9118;48.122;11.546;2023-11-21T03:15:56;8.40;99.90
17986;DHT22;9118;48.122;11.546;2023-11-21T03:18:23;8.40;99.90
17986;DHT22;9118;48.122;11.546;2023-11-21T03:20:51;8.40;99.90
17986;DHT22;9118;48.122;11.546;2023-11-21T03:23:18;8.40;99.90
17986;DHT22;9118;48.122;11.546;2023-11-21T03:25:45;8.50;99.90
17986;DHT22;9118;48.122;11.546;2023-11-21T03:28:12;8.50;99.90
17986;DHT22;9118;48.122;11.546;2023-11-21T03:30:39;8.50;99.90
17986;DHT22;9118;48.122;11.546;2023-11-21T03:33:07;8.50;99.90
17986;DHT22;9118;48.122;11.546;2023-11-21T03:35:34;8.50;99.90
17986;DHT22;9118;48.122;11.546;2023-11-21T03:38:02;8.50;99.90
17986;DHT22;9118;48.122;11.546;2023-11-21T03:40:28;8.40;99.90
17986;DHT22;9118;48.122;11.546;2023-11-21T03:42:56;8.40;99.90
17986;DHT22;9118;48.122;11.546;2023-11-21T03:45:23;8.40;99.90
17986;DHT22;9118;48.122;11.546;2023-11-21T03:47:50;8.30;99.90
17986;DHT22;9118;48.122;11.546;2023-11-21T03:50:18;8.20;99.90
17986;DHT22;9118;48.122;11.546;2023-11-21T03:52:45;8.00;99.90
17986;DHT22;9118;48.122;11.546;2023-11-21T03:55:12;8.00;99.90
17986;DHT22;9118;48.122;11.546;2023-11-21T03:57:40;8.00;99.90
17986;DHT22;9118;48.122;11.546;2023-11-21T04:00:07;8.00;99.90
17986;DHT22;9118;48.122;11.546;2023-11-21T04:02:35;7.90;99.90
17986;DHT22;9118;48.122;11.546;2023-11-21T04:05:02;7.80;99.90
17986;DHT22;9118;48.122;11.546;2023-11-21T04:07:33;7.90;99.90
17986;DHT22;9118;48.122;11.546;2023-11-21T04:10:00;7.80;99.90
17986;DHT22;9118;48.122;11.546;2023-11-21T04:22:38;8.30;99.90
17986;DHT22;9118;48.122;11.546;2023-11-21T04:30:09;7.90;99.90
17986;DHT22;9118;48.122;11.546;2023-11-21T04:42:37;7.70;99.90
17986;DHT22;9118;48.122;11.546;2023-11-21T05:00:05;7.70;99.90
17986;DHT22;9118;48.122;11.546;2023-11-21T05:55:09;7.60;99.90
17986;DHT22;9118;48.122;11.546;2023-11-21T05:57:36;7.90;99.90
17986;DHT22;9118;48.122;11.546;2023-11-21T06:00:03;7.60;99.90
17986;DHT22;9118;48.122;11.546;2023-11-21T06:02:36;7.70;99.90
17986;DHT22;9118;48.122;11.546;2023-11-21T06:05:03;7.70;99.90
17986;DHT22;9118;48.122;11.546;2023-11-21T06:07:30;7.60;99.90
17986;DHT22;9118;48.122;11.546;2023-11-21T06:09:57;7.60;99.90
17986;DHT22;9118;48.122;11.546;2023-11-21T06:12:26;7.60;99.90
17986;DHT22;9118;48.122;11.546;2023-11-21T06:14:52;7.60;99.90
17986;DHT22;9118;48.122;11.546;2023-11-21T06:17:19;7.60;99.90
17986;DHT22;9118;48.122;11.546;2023-11-21T06:19:46;7.60;99.90
17986;DHT22;9118;48.122;11.546;2023-11-21T07:04:30;7.90;99.90
17986;DHT22;9118;48.122;11.546;2023-11-21T07:06:57;8.00;99.90
17986;DHT22;9118;48.122;11.546;2023-11-21T07:19:19;8.00;99.90
17986;DHT22;9118;48.122;11.546;2023-11-21T07:29:13;7.90;99.90
17986;DHT22;9118;48.122;11.546;2023-11-21T07:39:02;8.20;99.90
17986;DHT22;9118;48.122;11.546;2023-11-21T07:41:29;8.20;99.90
17986;DHT22;9118;48.122;11.546;2023-11-21T07:48:53;7.90;99.90
17986;DHT22;9118;48.122;11.546;2023-11-21T07:53:49;8.20;99.90
17986;DHT22;9118;48.122;11.546;2023-11-21T07:56:18;7.90;99.90
17986;DHT22;9118;48.122;11.546;2023-11-21T08:01:17;8.30;99.90
17986;DHT22;9118;48.122;11.546;2023-11-21T08:13:44;8.30;99.90
17986;DHT22;9118;48.122;11.546;2023-11-21T08:23:37;8.40;99.90
17986;DHT22;9118;48.122;11.546;2023-11-21T08:31:01;8.60;99.90
17986;DHT22;9118;48.122;11.546;2023-11-21T08:33:30;8.50;99.90
17986;DHT22;9118;48.122;11.546;2023-11-21T08:38:26;8.60;99.90
17986;DHT22;9118;48.122;11.546;2023-11-21T08:40:56;8.60;99.90
17986;DHT22;9118;48.122;11.546;2023-11-21T08:43:22;8.60;99.90
17986;DHT22;9118;48.122;11.546;2023-11-21T08:45:49;8.50;99.90
17986;DHT22;9118;48.122;11.546;2023-11-21T08:48:18;8.60;99.90
17986;DHT22;9118;48.122;11.546;2023-11-21T08:50:45;8.50;99.90
17986;DHT22;9118;48.122;11.546;2023-11-21T08:53:12;8.60;99.90
17986;DHT22;9118;48.122;11.546;2023-11-21T08:55:38;8.50;99.90
17986;DHT22;9118;48.122;11.546;2023-11-21T08:58:05;8.30;99.90
17986;DHT22;9118;48.122;11.546;2023-11-21T09:00:32;8.50;99.90
17986;DHT22;9118;48.122;11.546;2023-11-21T09:03:00;8.50;99.90
17986;DHT22;9118;48.122;11.546;2023-11-21T09:05:29;8.40;99.90
17986;DHT22;9118;48.122;11.546;2023-11-21T09:07:56;8.40;99.90
17986;DHT22;9118;48.122;11.546;2023-11-21T09:10:23;8.40;99.90
17986;DHT22;9118;48.122;11.546;2023-11-21T09:12:50;8.50;99.90
17986;DHT22;9118;48.122;11.546;2023-11-21T09:15:18;8.50;99.90
17986;DHT22;9118;48.122;11.546;2023-11-21T09:17:45;8.50;99.90
17986;DHT22;9118;48.122;11.546;2023-11-21T09:20:12;8.50;99.90
17986;DHT22;9118;48.122;11.546;2023-11-21T09:22:41;8.40;99.90
17986;DHT22;9118;48.122;11.546;2023-11-21T09:25:10;8.70;99.90
17986;DHT22;9118;48.122;11.546;2023-11-21T09:27:36;8.40;99.90
17986;DHT22;9118;48.122;11.546;2023-11-21T09:30:03;8.40;99.90
17986;DHT22;9118;48.122;11.546;2023-11-21T09:32:31;8.50;99.90
17986;DHT22;9118;48.122;11.546;2023-11-21T09:34:57;8.50;99.90
17986;DHT22;9118;48.122;11.546;2023-11-21T09:37:27;8.30;99.90
17986;DHT22;9118;48.122;11.546;2023-11-21T09:39:55;8.00;99.90
17986;DHT22;9118;48.122;11.546;2023-11-21T09:42:23;8.50;99.90
17986;DHT22;9118;48.122;11.546;2023-11-21T09:44:54;8.50;99.90
17986;DHT22;9118;48.122;11.546;2023-11-21T09:47:23;8.40;99.90
17986;DHT22;9118;48.122;11.546;2023-11-21T09:49:49;8.40;99.90
17986;DHT22;9118;48.122;11.546;2023-11-21T09:52:26;8.20;99.90
17986;DHT22;9118;48.122;11.546;2023-11-21T09:54:53;8.20;99.90
17986;DHT22;9118;48.122;11.546;2023-11-21T09:57:21;8.30;99.90
17986;DHT22;9118;48.122;11.546;2023-11-21T09:59:49;8.10;99.90
17986;DHT22;9118;48.122;11.546;2023-11-21T10:02:17;8.10;99.90
17986;DHT22;9118;48.122;11.546;2023-11-21T10:04:46;8.20;99.90
17986;DHT22;9118;48.122;11.546;2023-11-21T10:07:13;8.20;99.90
17986;DHT22;9118;48.122;11.546;2023-11-21T10:09:40;8.40;99.90
17986;DHT22;9118;48.122;11.546;2023-11-21T10:12:08;8.30;99.90
17986;DHT22;9118;48.122;11.546;2023-11-21T10:14:38;8.50;99.90
17986;DHT22;9118;48.122;11.546;2023-11-21T10:17:06;8.40;99.90
17986;DHT22;9118;48.122;11.546;2023-11-21T10:19:34;8.60;99.90
17986;DHT22;9118;48.122;11.546;2023-11-21T10:22:01;8.70;99.90
17986;DHT22;9118;48.122;11.546;2023-11-21T10:24:29;8.70;99.90
17986;DHT22;9118;48.122;11.546;2023-11-21T10:26:55;8.80;99.90
17986;DHT22;9118;48.122;11.546;2023-11-21T10:29:22;8.80;99.90
17986;DHT22;9118;48.122;11.546;2023-11-21T10:31:50;8.80;99.90
17986;DHT22;9118;48.122;11.546;2023-11-21T10:34:20;8.60;99.90
17986;DHT22;9118;48.122;11.546;2023-11-21T10:36:50;8.70;99.90
17986;DHT22;9118;48.122;11.546;2023-11-21T10:39:17;8.90;99.90
17986;DHT22;9118;48.122;11.546;2023-11-21T10:41:44;8.90;99.90
17986;DHT22;9118;48.122;11.546;2023-11-21T10:44:13;8.90;99.90
17986;DHT22;9118;48.122;11.546;2023-11-21T10:46:45;9.00;99.90
17986;DHT22;9118;48.122;11.546;2023-11-21T10:49:17;9.10;99.90
17986;DHT22;9118;48.122;11.546;2023-11-21T10:51:45;9.00;99.90
17986;DHT22;9118;48.122;11.546;2023-11-21T10:54:16;9.00;99.90
17986;DHT22;9118;48.122;11.546;2023-11-21T10:56:43;9.10;99.90
17986;DHT22;9118;48.122;11.546;2023-11-21T10:59:10;9.10;99.90
17986;DHT22;9118;48.122;11.546;2023-11-21T11:01:40;8.90;99.90
17986;DHT22;9118;48.122;11.546;2023-11-21T11:04:08;8.40;99.90
17986;DHT22;9118;48.122;11.546;2023-11-21T11:06:42;9.20;99.90
17986;DHT22;9118;48.122;11.546;2023-11-21T11:09:11;9.30;99.90
17986;DHT22;9118;48.122;11.546;2023-11-21T11:11:39;9.20;99.90
17986;DHT22;9118;48.122;11.546;2023-11-21T11:14:07;9.20;99.90
17986;DHT22;9118;48.122;11.546;2023-11-21T11:16:34;9.40;99.90
17986;DHT22;9118;48.122;11.546;2023-11-21T11:19:00;9.60;99.90
17986;DHT22;9118;48.122;11.546;2023-11-21T11:21:31;9.70;99.90
17986;DHT22;9118;48.122;11.546;2023-11-21T11:24:08;9.60;99.90
17986;DHT22;9118;48.122;11.546;2023-11-21T11:26:40;9.70;99.90
17986;DHT22;9118;48.122;11.546;2023-11-21T11:29:11;9.60;99.90
17986;DHT22;9118;48.122;11.546;2023-11-21T11:31:44;9.70;99.90
17986;DHT22;9118;48.122;11.546;2023-11-21T11:34:17;9.50;99.90
17986;DHT22;9118;48.122;11.546;2023-11-21T11:36:47;9.40;99.90
17986;DHT22;9118;48.122;11.546;2023-11-21T11:39:28;9.40;99.90
17986;DHT22;9118;48.122;11.546;2023-11-21T11:41:55;9.60;99.90
17986;DHT22;9118;48.122;11.546;2023-11-21T11:47:13;9.30;99.90
17986;DHT22;9118;48.122;11.546;2023-11-21T11:49:45;9.20;99.90
17986;DHT22;9118;48.122;11.546;2023-11-21T11:52:36;10.60;99.90
17986;DHT22;9118;48.122;11.546;2023-11-21T11:55:07;9.60;99.90
17986;DHT22;9118;48.122;11.546;2023-11-21T11:57:36;9.50;99.90
17986;DHT22;9118;48.122;11.546;2023-11-21T12:00:07;9.90;99.90
17986;DHT22;9118;48.122;11.546;2023-11-21T12:02:35;9.50;99.90
17986;DHT22;9118;48.122;11.546;2023-11-21T12:05:09;9.40;99.90
17986;DHT22;9118;48.122;11.546;2023-11-21T12:07:46;9.40;99.90
17986;DHT22;9118;48.122;11.546;2023-11-21T12:10:15;9.50;99.90
17986;DHT22;9118;48.122;11.546;2023-11-21T12:12:44;9.30;99.90
17986;DHT22;9118;48.122;11.546;2023-11-21T12:15:11;9.60;99.90
17986;DHT22;9118;48.122;11.546;2023-11-21T12:17:38;9.50;99.90
17986;DHT22;9118;48.122;11.546;2023-11-21T12:20:06;9.50;99.90
17986;DHT22;9118;48.122;11.546;2023-11-21T12:22:42;9.70;99.90
17986;DHT22;9118;48.122;11.546;2023-11-21T12:25:09;9.80;99.90
17986;DHT22;9118;48.122;11.546;2023-11-21T12:27:43;10.00;99.90
17986;DHT22;9118;48.122;11.546;2023-11-21T12:30:14;10.10;99.90
17986;DHT22;9118;48.122;11.546;2023-11-21T12:32:41;10.20;99.90
17986;DHT22;9118;48.122;11.546;2023-11-21T12:35:08;10.20;99.90
17986;DHT22;9118;48.122;11.546;2023-11-21T12:37:36;10.10;99.90
17986;DHT22;9118;48.122;11.546;2023-11-21T12:40:04;10.10;99.90
17986;DHT22;9118;48.122;11.546;2023-11-21T12:42:31;10.00;99.90
17986;DHT22;9118;48.122;11.546;2023-11-21T12:45:10;10.00;99.90
17986;DHT22;9118;48.122;11.546;2023-11-21T12:47:46;9.80;99.90
17986;DHT22;9118;48.122;11.546;2023-11-21T12:50:12;9.60;99.90
17986;DHT22;9118;48.122;11.546;2023-11-21T12:52:41;9.60;99.90
17986;DHT22;9118;48.122;11.546;2023-11-21T12:55:09;9.70;99.90
17986;DHT22;9118;48.122;11.546;2023-11-21T12:57:41;9.40;99.90
17986;DHT22;9118;48.122;11.546;2023-11-21T13:00:10;9.20;99.90
17986;DHT22;9118;48.122;11.546;2023-11-21T13:02:41;9.30;99.90
17986;DHT22;9118;48.122;11.546;2023-11-21T13:05:08;9.50;99.90
17986;DHT22;9118;48.122;11.546;2023-11-21T13:07:43;9.50;99.90
17986;DHT22;9118;48.122;11.546;2023-11-21T13:10:12;9.50;99.90
17986;DHT22;9118;48.122;11.546;2023-11-21T13:12:42;9.60;99.90
17986;DHT22;9118;48.122;11.546;2023-11-21T13:15:11;9.90;99.90
17986;DHT22;9118;48.122;11.546;2023-11-21T13:17:42;10.00;99.90
17986;DHT22;9118;48.122;11.546;2023-11-21T13:20:10;10.30;99.90
17986;DHT22;9118;48.122;11.546;2023-11-21T13:22:45;10.40;99.90
17986;DHT22;9118;48.122;11.546;2023-11-21T13:25:12;10.40;99.90
17986;DHT22;9118;48.122;11.546;2023-11-21T13:27:40;10.40;99.90
17986;DHT22;9118;48.122;11.546;2023-11-21T13:30:08;10.40;99.90
17986;DHT22;9118;48.122;11.546;2023-11-21T13:32:37;10.00;99.90
17986;DHT22;9118;48.122;11.546;2023-11-21T13:35:06;10.00;99.90
17986;DHT22;9118;48.122;11.546;2023-11-21T13:37:37;9.90;99.90
17986;DHT22;9118;48.122;11.546;2023-11-21T13:40:05;9.70;99.90
17986;DHT22;9118;48.122;11.546;2023-11-21T13:42:40;9.70;99.90
17986;DHT22;9118;48.122;11.546;2023-11-21T13:45:08;9.70;99.90
17986;DHT22;9118;48.122;11.546;2023-11-21T13:47:35;9.90;99.90
17986;DHT22;9118;48.122;11.546;2023-11-21T13:50:05;9.80;99.90
17986;DHT22;9118;48.122;11.546;2023-11-21T13:52:39;9.80;99.90
17986;DHT22;9118;48.122;11.546;2023-11-21T13:55:06;9.70;99.90
17986;DHT22;9118;48.122;11.546;2023-11-21T13:57:39;9.60;99.90
17986;DHT22;9118;48.122;11.546;2023-11-21T14:00:10;9.50;99.90
17986;DHT22;9118;48.122;11.546;2023-11-21T14:02:57;8.90;99.90
17986;DHT22;9118;48.122;11.546;2023-11-21T14:05:27;8.70;99.90
17986;DHT22;9118;48.122;11.546;2023-11-21T14:07:56;8.60;99.90
17986;DHT22;9118;48.122;11.546;2023-11-21T14:10:28;8.70;99.90
17986;DHT22;9118;48.122;11.546;2023-11-21T14:13:02;8.40;99.90
17986;DHT22;9118;48.122;11.546;2023-11-21T14:15:29;8.40;99.90
17986;DHT22;9118;48.122;11.546;2023-11-21T14:17:58;8.40;99.90
17986;DHT22;9118;48.122;11.546;2023-11-21T14:20:29;9.00;99.90
17986;DHT22;9118;48.122;11.546;2023-11-21T14:22:56;8.70;99.90
17986;DHT22;9118;48.122;11.546;2023-11-21T14:25:23;8.20;99.90
17986;DHT22;9118;48.122;11.546;2023-11-21T14:27:49;8.10;99.90
17986;DHT22;9118;48.122;11.546;2023-11-21T14:30:16;8.20;99.90
17986;DHT22;9118;48.122;11.546;2023-11-21T14:32:46;8.10;99.90
17986;DHT22;9118;48.122;11.546;2023-11-21T14:35:13;8.20;99.90
17986;DHT22;9118;48.122;11.546;2023-11-21T14:40:09;8.20;99.90
17986;DHT22;9118;48.122;11.546;2023-11-21T14:42:36;8.20;99.90
17986;DHT22;9118;48.122;11.546;2023-11-21T14:45:05;8.30;99.90
17986;DHT22;9118;48.122;11.546;2023-11-21T14:47:33;8.70;99.90
17986;DHT22;9118;48.122;11.546;2023-11-21T14:50:00;8.60;99.90
17986;DHT22;9118;48.122;11.546;2023-11-21T14:52:45;8.70;99.90
17986;DHT22;9118;48.122;11.546;2023-11-21T14:55:22;8.70;99.90
17986;DHT22;9118;48.122;11.546;2023-11-21T14:57:56;8.70;99.90
17986;DHT22;9118;48.122;11.546;2023-11-21T15:00:23;8.80;99.90
17986;DHT22;9118;48.122;11.546;2023-11-21T15:03:09;8.80;99.90
17986;DHT22;9118;48.122;11.546;2023-11-21T15:05:36;8.90;99.90
17986;DHT22;9118;48.122;11.546;2023-11-21T15:08:05;8.80;99.90
17986;DHT22;9118;48.122;11.546;2023-11-21T15:10:43;8.90;99.90
17986;DHT22;9118;48.122;11.546;2023-11-21T15:13:14;8.90;99.90
17986;DHT22;9118;48.122;11.546;2023-11-21T15:15:40;8.90;99.90
17986;DHT22;9118;48.122;11.546;2023-11-21T15:18:07;8.90;99.90
17986;DHT22;9118;48.122;11.546;2023-11-21T15:20:37;8.90;99.90
17986;DHT22;9118;48.122;11.546;2023-11-21T15:23:04;8.80;99.90
17986;DHT22;9118;48.122;11.546;2023-11-21T15:25:31;8.90;99.90
17986;DHT22;9118;48.122;11.546;2023-11-21T15:28:00;8.90;99.90
17986;DHT22;9118;48.122;11.546;2023-11-21T15:30:27;8.40;99.90
17986;DHT22;9118;48.122;11.546;2023-11-21T15:32:57;9.00;99.90
17986;DHT22;9118;48.122;11.546;2023-11-21T15:35:23;9.00;99.90
17986;DHT22;9118;48.122;11.546;2023-11-21T15:37:52;9.00;99.90
17986;DHT22;9118;48.122;11.546;2023-11-21T15:40:19;9.00;99.90
17986;DHT22;9118;48.122;11.546;2023-11-21T15:42:46;9.00;99.90
17986;DHT22;9118;48.122;11.546;2023-11-21T15:45:16;8.80;99.90
17986;DHT22;9118;48.122;11.546;2023-11-21T15:47:46;8.40;99.90
17986;DHT22;9118;48.122;11.546;2023-11-21T15:50:13;9.20;99.90
17986;DHT22;9118;48.122;11.546;2023-11-21T15:52:42;8.30;99.90
17986;DHT22;9118;48.122;11.546;2023-11-21T15:55:09;8.40;99.90
17986;DHT22;9118;48.122;11.546;2023-11-21T15:57:36;8.70;99.90
17986;DHT22;9118;48.122;11.546;2023-11-21T16:00:03;8.40;99.90
17986;DHT22;9118;48.122;11.546;2023-11-21T16:02:42;8.40;99.90
17986;DHT22;9118;48.122;11.546;2023-11-21T16:05:09;8.50;99.90
17986;DHT22;9118;48.122;11.546;2023-11-21T16:07:38;8.50;99.90
17986;DHT22;9118;48.122;11.546;2023-11-21T16:10:07;8.50;99.90
17986;DHT22;9118;48.122;11.546;2023-11-21T16:12:36;8.50;99.90
17986;DHT22;9118;48.122;11.546;2023-11-21T16:15:03;8.40;99.90
17986;DHT22;9118;48.122;11.546;2023-11-21T16:17:33;8.40;99.90
17986;DHT22;9118;48.122;11.546;2023-11-21T16:20:02;8.50;99.90
17986;DHT22;9118;48.122;11.546;2023-11-21T16:22:34;8.30;99.90
17986;DHT22;9118;48.122;11.546;2023-11-21T16:25:01;8.50;99.90
17986;DHT22;9118;48.122;11.546;2023-11-21T16:27:29;8.40;99.90
17986;DHT22;9118;48.122;11.546;2023-11-21T16:29:56;8.40;99.90
17986;DHT22;9118;48.122;11.546;2023-11-21T16:32:23;8.20;99.90
17986;DHT22;9118;48.122;11.546;2023-11-21T16:34:50;8.20;99.90
17986;DHT22;9118;48.122;11.546;2023-11-21T16:37:18;8.10;99.90
17986;DHT22;9118;48.122;11.546;2023-11-21T16:39:45;8.10;99.90
17986;DHT22;9118;48.122;11.546;2023-11-21T16:42:13;8.10;99.90
17986;DHT22;9118;48.122;11.546;2023-11-21T16:44:39;8.10;99.90
17986;DHT22;9118;48.122;11.546;2023-11-21T16:47:06;8.10;99.90
17986;DHT22;9118;48.122;11.546;2023-11-21T16:49:33;8.20;99.90
17986;DHT22;9118;48.122;11.546;2023-11-21T16:52:03;8.20;99.90
17986;DHT22;9118;48.122;11.546;2023-11-21T16:54:34;8.30;99.90
17986;DHT22;9118;48.122;11.546;2023-11-21T16:57:00;8.40;99.90
17986;DHT22;9118;48.122;11.546;2023-11-21T16:59:28;8.20;99.90
17986;DHT22;9118;48.122;11.546;2023-11-21T17:01:54;8.20;99.90
17986;DHT22;9118;48.122;11.546;2023-11-21T17:04:24;8.20;99.90
17986;DHT22;9118;48.122;11.546;2023-11-21T17:06:51;8.20;99.90
17986;DHT22;9118;48.122;11.546;2023-11-21T17:09:18;8.40;99.90
17986;DHT22;9118;48.122;11.546;2023-11-21T17:14:13;8.30;99.90
17986;DHT22;9118;48.122;11.546;2023-11-21T17:16:40;8.40;99.90
17986;DHT22;9118;48.122;11.546;2023-11-21T17:19:09;8.50;99.90
17986;DHT22;9118;48.122;11.546;2023-11-21T17:21:36;8.50;99.90
17986;DHT22;9118;48.122;11.546;2023-11-21T17:24:03;7.90;99.90
17986;DHT22;9118;48.122;11.546;2023-11-21T17:26:30;8.60;99.90
17986;DHT22;9118;48.122;11.546;2023-11-21T17:28:57;8.60;99.90
17986;DHT22;9118;48.122;11.546;2023-11-21T17:31:25;8.10;99.90
17986;DHT22;9118;48.122;11.546;2023-11-21T17:33:54;8.10;99.90
17986;DHT22;9118;48.122;11.546;2023-11-21T17:36:21;8.20;99.90
17986;DHT22;9118;48.122;11.546;2023-11-21T17:39:03;8.10;99.90
17986;DHT22;9118;48.122;11.546;2023-11-21T17:41:34;8.00;99.90
17986;DHT22;9118;48.122;11.546;2023-11-21T17:44:02;8.00;99.90
17986;DHT22;9118;48.122;11.546;2023-11-21T17:46:30;8.20;99.90
17986;DHT22;9118;48.122;11.546;2023-11-21T17:48:57;8.10;99.90
17986;DHT22;9118;48.122;11.546;2023-11-21T17:51:24;8.10;99.90
17986;DHT22;9118;48.122;11.546;2023-11-21T17:53:51;8.10;99.90
17986;DHT22;9118;48.122;11.546;2023-11-21T17:56:23;8.10;99.90
17986;DHT22;9118;48.122;11.546;2023-11-21T17:58:50;8.10;99.90
17986;DHT22;9118;48.122;11.546;2023-11-21T18:01:19;8.10;99.90
17986;DHT22;9118;48.122;11.546;2023-11-21T18:03:47;8.00;99.90
17986;DHT22;9118;48.122;11.546;2023-11-21T18:06:14;7.90;99.90
17986;DHT22;9118;48.122;11.546;2023-11-21T18:08:41;7.80;99.90
17986;DHT22;9118;48.122;11.546;2023-11-21T18:11:08;7.80;99.90
17986;DHT22;9118;48.122;11.546;2023-11-21T18:13:35;7.70;99.90
17986;DHT22;9118;48.122;11.546;2023-11-21T18:16:02;7.70;99.90
17986;DHT22;9118;48.122;11.546;2023-11-21T18:18:29;7.80;99.90
17986;DHT22;9118;48.122;11.546;2023-11-21T18:20:57;7.80;99.90
17986;DHT22;9118;48.122;11.546;2023-11-21T18:23:24;7.80;99.90
17986;DHT22;9118;48.122;11.546;2023-11-21T18:25:51;7.70;99.90
17986;DHT22;9118;48.122;11.546;2023-11-21T18:28:18;7.90;99.90
17986;DHT22;9118;48.122;11.546;2023-11-21T18:30:45;8.20;99.90
17986;DHT22;9118;48.122;11.546;2023-11-21T18:33:13;7.90;99.90
17986;DHT22;9118;48.122;11.546;2023-11-21T18:35:40;7.80;99.90
17986;DHT22;9118;48.122;11.546;2023-11-21T18:38:09;7.90;99.90
17986;DHT22;9118;48.122;11.546;2023-11-21T18:40:36;7.80;99.90
17986;DHT22;9118;48.122;11.546;2023-11-21T18:43:02;7.80;99.90
17986;DHT22;9118;48.122;11.546;2023-11-21T18:45:29;7.90;99.90
17986;DHT22;9118;48.122;11.546;2023-11-21T18:47:56;8.00;99.90
17986;DHT22;9118;48.122;11.546;2023-11-21T18:50:23;7.90;99.90
17986;DHT22;9118;48.122;11.546;2023-11-21T18:52:50;7.90;99.90
17986;DHT22;9118;48.122;11.546;2023-11-21T18:55:19;7.70;99.90
17986;DHT22;9118;48.122;11.546;2023-11-21T18:57:46;7.60;99.90
17986;DHT22;9118;48.122;11.546;2023-11-21T19:00:13;7.50;99.90
17986;DHT22;9118;48.122;11.546;2023-11-21T19:02:42;7.40;99.90
17986;DHT22;9118;48.122;11.546;2023-11-21T19:05:09;7.40;99.90
17986;DHT22;9118;48.122;11.546;2023-11-21T19:07:36;7.30;99.90
17986;DHT22;9118;48.122;11.546;2023-11-21T19:10:03;7.50;99.90
17986;DHT22;9118;48.122;11.546;2023-11-21T19:12:32;7.40;99.90
17986;DHT22;9118;48.122;11.546;2023-11-21T19:15:00;7.50;99.90
17986;DHT22;9118;48.122;11.546;2023-11-21T19:17:27;7.50;99.90
17986;DHT22;9118;48.122;11.546;2023-11-21T19:19:54;7.40;99.90
17986;DHT22;9118;48.122;11.546;2023-11-21T19:22:21;7.50;99.90
17986;DHT22;9118;48.122;11.546;2023-11-21T19:24:48;7.50;99.90
17986;DHT22;9118;48.122;11.546;2023-11-21T19:27:15;7.60;99.90
17986;DHT22;9118;48.122;11.546;2023-11-21T19:29:44;7.30;99.90
17986;DHT22;9118;48.122;11.546;2023-11-21T19:32:10;7.40;99.90
17986;DHT22;9118;48.122;11.546;2023-11-21T19:34:37;7.60;99.90
17986;DHT22;9118;48.122;11.546;2023-11-21T19:37:04;7.50;99.90
17986;DHT22;9118;48.122;11.546;2023-11-21T19:39:31;7.50;99.90
17986;DHT22;9118;48.122;11.546;2023-11-21T19:41:58;7.60;99.90
17986;DHT22;9118;48.122;11.546;2023-11-21T19:44:25;7.60;99.90
17986;DHT22;9118;48.122;11.546;2023-11-21T19:46:54;7.90;99.90
17986;DHT22;9118;48.122;11.546;2023-11-21T19:49:22;7.90;99.90
17986;DHT22;9118;48.122;11.546;2023-11-21T19:51:49;7.90;99.90
17986;DHT22;9118;48.122;11.546;2023-11-21T19:54:16;7.90;99.90
17986;DHT22;9118;48.122;11.546;2023-11-21T19:56:43;7.60;99.90
17986;DHT22;9118;48.122;11.546;2023-11-21T19:59:10;7.60;99.90
17986;DHT22;9118;48.122;11.546;2023-11-21T20:01:37;7.80;99.90
17986;DHT22;9118;48.122;11.546;2023-11-21T20:04:06;7.60;99.90
17986;DHT22;9118;48.122;11.546;2023-11-21T20:06:37;7.40;99.90
17986;DHT22;9118;48.122;11.546;2023-11-21T20:09:04;7.50;99.90
17986;DHT22;9118;48.122;11.546;2023-11-21T20:11:30;7.40;99.90
17986;DHT22;9118;48.122;11.546;2023-11-21T20:13:59;7.40;99.90
17986;DHT22;9118;48.122;11.546;2023-11-21T20:16:26;7.40;99.90
17986;DHT22;9118;48.122;11.546;2023-11-21T20:18:53;7.60;99.90
17986;DHT22;9118;48.122;11.546;2023-11-21T20:21:21;7.60;99.90
17986;DHT22;9118;48.122;11.546;2023-11-21T20:23:48;7.90;99.90
17986;DHT22;9118;48.122;11.546;2023-11-21T20:26:20;7.80;99.90
17986;DHT22;9118;48.122;11.546;2023-11-21T20:28:46;7.90;99.90
17986;DHT22;9118;48.122;11.546;2023-11-21T20:31:13;8.20;99.90
17986;DHT22;9118;48.122;11.546;2023-11-21T20:33:40;8.10;99.90
17986;DHT22;9118;48.122;11.546;2023-11-21T20:36:07;8.20;99.90
17986;DHT22;9118;48.122;11.546;2023-11-21T20:38:35;8.10;99.90
17986;DHT22;9118;48.122;11.546;2023-11-21T20:41:02;8.20;99.90